Sheerness, United Kingdom

3:01 PM BST on July 04, 2015 (GMT +0100)
IDNS44 | | Change Station
CLOSE
Current Station
Personal Weather Station
Location: Sheerness, Kent
Elevation: 32 ft
Nearby Weather Stations

Elev 32 ft 51.44 °N, 0.78 °E | Updated 1 minute ago

Partly Cloudy
Partly Cloudy
79.3 °F
Feels Like 81 °F
N
9.0
Wind Variable Wind from SSW
Gusts 15.0 mph

Today
High -- | Low -- °F
--% Chance of Precip.
Yesterday
High -- | Low -- °F
Precip. -- in
4:46 AM 9:15 PM
Waning Gibbous, 92% visible
Pressure 30.06 in
Visibility 6.2 miles
Clouds Few 4000 ft
Heat Index 81 °F
Dew Point 62 °F
Humidity 55%
Rainfall 0.02 in
Snow Depth Not available.
UV 8 out of 12
Pollen Not available.
Air Quality Not available.
Flu Activity Not available.
METAR EGMC 041350Z 22014KT 9999 FEW040 28/14 Q1018

More Conditions Fewer Conditions

Pressure 30.06 in
Visibility 6.2 miles
Clouds Few 4000 ft
Heat Index 81 °F
Dew Point 62 °F
Humidity 55%
Rainfall 0.02 in
Snow Depth Not available.
UV 8 out of 12
Pollen Not available.
Air Quality Not available.
Flu Activity Not available.
METAR EGMC 041350Z 22014KT 9999 FEW040 28/14 Q1018

More Conditions Fewer Conditions

10-Day Weather Forecast

×

Almanac

Astronomy

Jul. 04, 2015 Rise Set
Actual Time
Civil Twilight
Nautical Twilight
Astronomical Twilight
Moon
Length of Visible Light
Length of Day
Tomorrow will be .
, % of the Moon is Illuminated

Today's Extremes

Country Highs Country Lows

Community

WunderPhotos

Upload Photos

1,834,967 photos uploaded!

WunderBlogs® & News

Nearby

Air Quality

  Air Quality AQ Index Pollutant
Not available.

Snow Depth

Station Depth Elevation

Earthquake Activity

City Distance Mag. Time & Date
Minimum magnitude displayed is 2.5.

Coastal Water Temperatures

Place Temperature

Stations

Nearby Weather Stations

Station Location Temp. Windchill Dew Point Humidity Wind Precip. Elev Updated Type